sensor_id;sensor_type;location;lat;lon;timestamp;temperature;humidity
78550;DHT22;68091;52.130;5.570;2023-05-07T00:02:12;14.40;99.90
78550;DHT22;68091;52.130;5.570;2023-05-07T00:04:37;14.30;99.90
78550;DHT22;68091;52.130;5.570;2023-05-07T00:07:04;14.40;99.90
78550;DHT22;68091;52.130;5.570;2023-05-07T00:09:31;14.40;99.90
78550;DHT22;68091;52.130;5.570;2023-05-07T00:11:57;14.40;99.90
78550;DHT22;68091;52.130;5.570;2023-05-07T00:14:25;14.40;99.90
78550;DHT22;68091;52.130;5.570;2023-05-07T00:16:51;14.50;99.90
78550;DHT22;68091;52.130;5.570;2023-05-07T00:19:17;14.40;99.90
78550;DHT22;68091;52.130;5.570;2023-05-07T00:21:45;14.30;99.90
78550;DHT22;68091;52.130;5.570;2023-05-07T00:24:11;14.40;99.90
78550;DHT22;68091;52.130;5.570;2023-05-07T00:26:37;14.30;99.90
78550;DHT22;68091;52.130;5.570;2023-05-07T00:29:06;14.30;99.90
78550;DHT22;68091;52.130;5.570;2023-05-07T00:31:32;14.60;99.90
78550;DHT22;68091;52.130;5.570;2023-05-07T00:33:58;14.30;99.90
78550;DHT22;68091;52.130;5.570;2023-05-07T00:36:23;14.20;99.90
78550;DHT22;68091;52.130;5.570;2023-05-07T00:38:49;14.20;99.90
78550;DHT22;68091;52.130;5.570;2023-05-07T00:41:15;14.20;99.90
78550;DHT22;68091;52.130;5.570;2023-05-07T00:43:41;14.20;99.90
78550;DHT22;68091;52.130;5.570;2023-05-07T00:46:10;14.10;99.90
78550;DHT22;68091;52.130;5.570;2023-05-07T00:48:37;14.10;99.90
78550;DHT22;68091;52.130;5.570;2023-05-07T00:51:03;14.10;99.90
78550;DHT22;68091;52.130;5.570;2023-05-07T00:53:29;14.00;99.90
78550;DHT22;68091;52.130;5.570;2023-05-07T00:55:55;14.00;99.90
78550;DHT22;68091;52.130;5.570;2023-05-07T00:58:24;14.00;99.90
78550;DHT22;68091;52.130;5.570;2023-05-07T01:00:50;14.00;99.90
78550;DHT22;68091;52.130;5.570;2023-05-07T01:03:16;14.00;99.90
78550;DHT22;68091;52.130;5.570;2023-05-07T01:05:43;14.10;99.90
78550;DHT22;68091;52.130;5.570;2023-05-07T01:08:10;14.10;99.90
78550;DHT22;68091;52.130;5.570;2023-05-07T01:10:37;14.10;99.90
78550;DHT22;68091;52.130;5.570;2023-05-07T01:13:03;14.10;99.90
78550;DHT22;68091;52.130;5.570;2023-05-07T01:15:32;14.10;99.90
78550;DHT22;68091;52.130;5.570;2023-05-07T01:17:58;14.10;99.90
78550;DHT22;68091;52.130;5.570;2023-05-07T01:20:24;14.10;99.90
78550;DHT22;68091;52.130;5.570;2023-05-07T01:22:50;14.10;99.90
78550;DHT22;68091;52.130;5.570;2023-05-07T01:25:17;14.10;99.90
78550;DHT22;68091;52.130;5.570;2023-05-07T01:27:43;14.10;99.90
78550;DHT22;68091;52.130;5.570;2023-05-07T01:30:10;14.10;99.90
78550;DHT22;68091;52.130;5.570;2023-05-07T01:32:53;14.00;99.90
78550;DHT22;68091;52.130;5.570;2023-05-07T01:35:26;14.10;99.90
78550;DHT22;68091;52.130;5.570;2023-05-07T01:37:56;14.00;99.90
78550;DHT22;68091;52.130;5.570;2023-05-07T01:40:25;14.00;99.90
78550;DHT22;68091;52.130;5.570;2023-05-07T01:42:51;14.00;99.90
78550;DHT22;68091;52.130;5.570;2023-05-07T01:45:20;14.00;99.90
78550;DHT22;68091;52.130;5.570;2023-05-07T01:47:45;14.00;99.90
78550;DHT22;68091;52.130;5.570;2023-05-07T01:50:12;14.00;99.90
78550;DHT22;68091;52.130;5.570;2023-05-07T01:52:38;14.10;99.90
78550;DHT22;68091;52.130;5.570;2023-05-07T01:55:05;14.10;99.90
78550;DHT22;68091;52.130;5.570;2023-05-07T01:57:31;14.10;99.90
78550;DHT22;68091;52.130;5.570;2023-05-07T01:59:57;14.10;99.90
78550;DHT22;68091;52.130;5.570;2023-05-07T02:02:23;14.00;99.90
78550;DHT22;68091;52.130;5.570;2023-05-07T02:04:51;14.00;99.90
78550;DHT22;68091;52.130;5.570;2023-05-07T02:07:17;14.00;99.90
78550;DHT22;68091;52.130;5.570;2023-05-07T02:09:43;14.00;99.90
78550;DHT22;68091;52.130;5.570;2023-05-07T02:12:08;14.00;99.90
78550;DHT22;68091;52.130;5.570;2023-05-07T02:14:34;14.00;99.90
78550;DHT22;68091;52.130;5.570;2023-05-07T02:17:00;14.00;99.90
78550;DHT22;68091;52.130;5.570;2023-05-07T02:19:26;14.00;99.90
78550;DHT22;68091;52.130;5.570;2023-05-07T02:21:51;14.00;99.90
78550;DHT22;68091;52.130;5.570;2023-05-07T02:24:18;14.00;99.90
78550;DHT22;68091;52.130;5.570;2023-05-07T02:26:44;14.00;99.90
78550;DHT22;68091;52.130;5.570;2023-05-07T02:29:09;14.00;99.90
78550;DHT22;68091;52.130;5.570;2023-05-07T02:31:35;14.00;99.90
78550;DHT22;68091;52.130;5.570;2023-05-07T02:34:01;14.00;99.90
78550;DHT22;68091;52.130;5.570;2023-05-07T02:36:27;14.00;99.90
78550;DHT22;68091;52.130;5.570;2023-05-07T02:38:53;14.00;99.90
78550;DHT22;68091;52.130;5.570;2023-05-07T02:41:18;14.00;99.90
78550;DHT22;68091;52.130;5.570;2023-05-07T02:43:45;13.90;99.90
78550;DHT22;68091;52.130;5.570;2023-05-07T02:46:11;14.00;99.90
78550;DHT22;68091;52.130;5.570;2023-05-07T02:48:37;14.00;99.90
78550;DHT22;68091;52.130;5.570;2023-05-07T02:51:04;14.00;99.90
78550;DHT22;68091;52.130;5.570;2023-05-07T02:53:33;14.00;99.90
78550;DHT22;68091;52.130;5.570;2023-05-07T02:56:00;14.00;99.90
78550;DHT22;68091;52.130;5.570;2023-05-07T02:58:27;13.90;99.90
78550;DHT22;68091;52.130;5.570;2023-05-07T03:00:53;14.00;99.90
78550;DHT22;68091;52.130;5.570;2023-05-07T03:03:22;14.00;99.90
78550;DHT22;68091;52.130;5.570;2023-05-07T03:05:48;13.90;99.90
78550;DHT22;68091;52.130;5.570;2023-05-07T03:08:14;13.90;99.90
78550;DHT22;68091;52.130;5.570;2023-05-07T03:10:39;14.00;99.90
78550;DHT22;68091;52.130;5.570;2023-05-07T03:13:05;14.00;99.90
78550;DHT22;68091;52.130;5.570;2023-05-07T03:15:31;14.20;99.90
78550;DHT22;68091;52.130;5.570;2023-05-07T03:17:59;14.00;99.90
78550;DHT22;68091;52.130;5.570;2023-05-07T03:20:25;14.00;99.90
78550;DHT22;68091;52.130;5.570;2023-05-07T03:22:51;14.00;99.90
78550;DHT22;68091;52.130;5.570;2023-05-07T03:25:16;14.10;99.90
78550;DHT22;68091;52.130;5.570;2023-05-07T03:27:42;14.20;99.90
78550;DHT22;68091;52.130;5.570;2023-05-07T03:30:08;14.20;99.90
78550;DHT22;68091;52.130;5.570;2023-05-07T03:32:35;14.20;99.90
78550;DHT22;68091;52.130;5.570;2023-05-07T03:35:01;14.10;99.90
78550;DHT22;68091;52.130;5.570;2023-05-07T03:37:28;14.00;99.90
78550;DHT22;68091;52.130;5.570;2023-05-07T03:39:53;14.00;99.90
78550;DHT22;68091;52.130;5.570;2023-05-07T03:42:22;14.00;99.90
78550;DHT22;68091;52.130;5.570;2023-05-07T03:44:48;14.00;99.90
78550;DHT22;68091;52.130;5.570;2023-05-07T03:47:14;14.00;99.90
78550;DHT22;68091;52.130;5.570;2023-05-07T03:49:40;13.90;99.90
78550;DHT22;68091;52.130;5.570;2023-05-07T03:52:06;13.90;99.90
78550;DHT22;68091;52.130;5.570;2023-05-07T03:54:32;13.90;99.90
78550;DHT22;68091;52.130;5.570;2023-05-07T03:56:57;13.90;99.90
78550;DHT22;68091;52.130;5.570;2023-05-07T03:59:23;13.90;99.90
78550;DHT22;68091;52.130;5.570;2023-05-07T04:01:49;13.90;99.90
78550;DHT22;68091;52.130;5.570;2023-05-07T04:04:15;13.90;99.90
78550;DHT22;68091;52.130;5.570;2023-05-07T04:06:41;13.90;99.90
78550;DHT22;68091;52.130;5.570;2023-05-07T04:09:07;14.00;99.90
78550;DHT22;68091;52.130;5.570;2023-05-07T04:11:34;14.00;99.90
78550;DHT22;68091;52.130;5.570;2023-05-07T04:14:00;14.00;99.90
78550;DHT22;68091;52.130;5.570;2023-05-07T04:16:26;14.00;99.90
78550;DHT22;68091;52.130;5.570;2023-05-07T04:18:51;13.90;99.90
78550;DHT22;68091;52.130;5.570;2023-05-07T04:21:18;14.00;99.90
78550;DHT22;68091;52.130;5.570;2023-05-07T04:23:45;13.90;99.90
78550;DHT22;68091;52.130;5.570;2023-05-07T04:26:11;13.90;99.90
78550;DHT22;68091;52.130;5.570;2023-05-07T04:28:37;14.00;99.90
78550;DHT22;68091;52.130;5.570;2023-05-07T04:31:03;14.00;99.90
78550;DHT22;68091;52.130;5.570;2023-05-07T04:33:29;14.00;99.90
78550;DHT22;68091;52.130;5.570;2023-05-07T04:35:55;14.00;99.90
78550;DHT22;68091;52.130;5.570;2023-05-07T04:38:21;13.90;99.90
78550;DHT22;68091;52.130;5.570;2023-05-07T04:40:49;14.00;99.90
78550;DHT22;68091;52.130;5.570;2023-05-07T04:43:15;14.00;99.90
78550;DHT22;68091;52.130;5.570;2023-05-07T04:45:41;14.00;99.90
78550;DHT22;68091;52.130;5.570;2023-05-07T04:48:10;14.00;99.90
78550;DHT22;68091;52.130;5.570;2023-05-07T04:50:36;14.00;99.90
78550;DHT22;68091;52.130;5.570;2023-05-07T04:53:02;14.00;99.90
78550;DHT22;68091;52.130;5.570;2023-05-07T04:55:28;14.00;99.90
78550;DHT22;68091;52.130;5.570;2023-05-07T04:57:54;14.00;99.90
78550;DHT22;68091;52.130;5.570;2023-05-07T05:00:20;14.00;99.90
78550;DHT22;68091;52.130;5.570;2023-05-07T05:02:46;14.10;99.90
78550;DHT22;68091;52.130;5.570;2023-05-07T05:05:11;14.10;99.90
78550;DHT22;68091;52.130;5.570;2023-05-07T05:07:37;14.20;99.90
78550;DHT22;68091;52.130;5.570;2023-05-07T05:10:05;14.20;99.90
78550;DHT22;68091;52.130;5.570;2023-05-07T05:12:31;14.30;99.90
78550;DHT22;68091;52.130;5.570;2023-05-07T05:14:57;14.30;99.90
78550;DHT22;68091;52.130;5.570;2023-05-07T05:17:23;14.20;99.90
78550;DHT22;68091;52.130;5.570;2023-05-07T05:19:48;14.20;99.90
78550;DHT22;68091;52.130;5.570;2023-05-07T05:22:15;14.20;99.90
78550;DHT22;68091;52.130;5.570;2023-05-07T05:24:41;14.30;99.90
78550;DHT22;68091;52.130;5.570;2023-05-07T05:27:06;14.30;99.90
78550;DHT22;68091;52.130;5.570;2023-05-07T05:29:32;14.30;99.90
78550;DHT22;68091;52.130;5.570;2023-05-07T05:31:58;14.30;99.90
78550;DHT22;68091;52.130;5.570;2023-05-07T05:34:24;14.40;99.90
78550;DHT22;68091;52.130;5.570;2023-05-07T05:36:49;14.40;99.90
78550;DHT22;68091;52.130;5.570;2023-05-07T05:39:15;14.40;99.90
78550;DHT22;68091;52.130;5.570;2023-05-07T05:41:41;14.40;99.90
78550;DHT22;68091;52.130;5.570;2023-05-07T05:44:07;14.40;99.90
78550;DHT22;68091;52.130;5.570;2023-05-07T05:46:32;14.40;99.90
78550;DHT22;68091;52.130;5.570;2023-05-07T05:48:58;14.50;99.90
78550;DHT22;68091;52.130;5.570;2023-05-07T05:51:24;14.50;99.90
78550;DHT22;68091;52.130;5.570;2023-05-07T05:53:50;14.60;99.90
78550;DHT22;68091;52.130;5.570;2023-05-07T05:56:16;14.50;99.90
78550;DHT22;68091;52.130;5.570;2023-05-07T05:58:42;14.60;99.90
78550;DHT22;68091;52.130;5.570;2023-05-07T06:01:08;14.70;99.90
78550;DHT22;68091;52.130;5.570;2023-05-07T06:03:34;14.70;99.90
78550;DHT22;68091;52.130;5.570;2023-05-07T06:06:00;14.80;99.90
78550;DHT22;68091;52.130;5.570;2023-05-07T06:08:28;14.80;99.90
78550;DHT22;68091;52.130;5.570;2023-05-07T06:10:55;14.80;99.90
78550;DHT22;68091;52.130;5.570;2023-05-07T06:13:20;14.80;99.90
78550;DHT22;68091;52.130;5.570;2023-05-07T06:15:46;14.80;99.90
78550;DHT22;68091;52.130;5.570;2023-05-07T06:18:12;14.90;99.90
78550;DHT22;68091;52.130;5.570;2023-05-07T06:20:38;15.00;99.90
78550;DHT22;68091;52.130;5.570;2023-05-07T06:23:06;14.90;99.90
78550;DHT22;68091;52.130;5.570;2023-05-07T06:25:32;14.90;99.90
78550;DHT22;68091;52.130;5.570;2023-05-07T06:27:58;15.00;99.90
78550;DHT22;68091;52.130;5.570;2023-05-07T06:30:24;15.10;99.90
78550;DHT22;68091;52.130;5.570;2023-05-07T06:32:50;15.20;99.90
78550;DHT22;68091;52.130;5.570;2023-05-07T06:35:16;15.20;99.90
78550;DHT22;68091;52.130;5.570;2023-05-07T06:37:42;15.40;99.90
78550;DHT22;68091;52.130;5.570;2023-05-07T06:40:08;15.40;99.90
78550;DHT22;68091;52.130;5.570;2023-05-07T06:42:35;15.40;99.90
78550;DHT22;68091;52.130;5.570;2023-05-07T06:45:01;15.20;99.90
78550;DHT22;68091;52.130;5.570;2023-05-07T06:47:28;15.40;99.90
78550;DHT22;68091;52.130;5.570;2023-05-07T06:50:03;15.50;99.90
78550;DHT22;68091;52.130;5.570;2023-05-07T06:52:29;15.50;99.90
78550;DHT22;68091;52.130;5.570;2023-05-07T06:54:55;15.50;99.90
78550;DHT22;68091;52.130;5.570;2023-05-07T06:57:20;15.50;99.90
78550;DHT22;68091;52.130;5.570;2023-05-07T06:59:46;15.50;99.90
78550;DHT22;68091;52.130;5.570;2023-05-07T07:02:12;15.50;99.90
78550;DHT22;68091;52.130;5.570;2023-05-07T07:04:38;15.50;99.90
78550;DHT22;68091;52.130;5.570;2023-05-07T07:07:04;15.50;99.90
78550;DHT22;68091;52.130;5.570;2023-05-07T07:09:29;15.40;99.90
78550;DHT22;68091;52.130;5.570;2023-05-07T07:11:55;15.40;99.90
78550;DHT22;68091;52.130;5.570;2023-05-07T07:14:21;15.40;99.90
78550;DHT22;68091;52.130;5.570;2023-05-07T07:16:47;15.60;99.90
78550;DHT22;68091;52.130;5.570;2023-05-07T07:19:13;15.60;99.90
78550;DHT22;68091;52.130;5.570;2023-05-07T07:21:41;15.70;99.90
78550;DHT22;68091;52.130;5.570;2023-05-07T07:24:06;15.80;99.90
78550;DHT22;68091;52.130;5.570;2023-05-07T07:26:32;15.70;99.90
78550;DHT22;68091;52.130;5.570;2023-05-07T07:28:58;15.80;99.90
78550;DHT22;68091;52.130;5.570;2023-05-07T07:31:24;15.90;99.90
78550;DHT22;68091;52.130;5.570;2023-05-07T07:33:49;15.90;99.90
78550;DHT22;68091;52.130;5.570;2023-05-07T07:36:16;16.00;99.90
78550;DHT22;68091;52.130;5.570;2023-05-07T07:38:44;16.00;99.90
78550;DHT22;68091;52.130;5.570;2023-05-07T07:41:13;16.10;99.90
78550;DHT22;68091;52.130;5.570;2023-05-07T07:43:38;16.10;99.90
78550;DHT22;68091;52.130;5.570;2023-05-07T07:46:04;16.30;99.90
78550;DHT22;68091;52.130;5.570;2023-05-07T07:48:30;16.50;99.90
78550;DHT22;68091;52.130;5.570;2023-05-07T07:50:56;16.60;99.90
78550;DHT22;68091;52.130;5.570;2023-05-07T07:53:22;16.60;99.90
78550;DHT22;68091;52.130;5.570;2023-05-07T07:55:47;16.60;99.90
78550;DHT22;68091;52.130;5.570;2023-05-07T07:58:13;16.60;99.90
78550;DHT22;68091;52.130;5.570;2023-05-07T08:00:39;16.60;99.90
78550;DHT22;68091;52.130;5.570;2023-05-07T08:03:05;16.60;99.90
78550;DHT22;68091;52.130;5.570;2023-05-07T08:05:32;16.50;99.90
78550;DHT22;68091;52.130;5.570;2023-05-07T08:07:58;16.50;99.90
78550;DHT22;68091;52.130;5.570;2023-05-07T08:10:24;16.70;99.90
78550;DHT22;68091;52.130;5.570;2023-05-07T08:12:50;16.60;99.90
78550;DHT22;68091;52.130;5.570;2023-05-07T08:15:16;16.70;99.90
78550;DHT22;68091;52.130;5.570;2023-05-07T08:17:43;16.80;99.90
78550;DHT22;68091;52.130;5.570;2023-05-07T08:20:09;17.00;99.90
78550;DHT22;68091;52.130;5.570;2023-05-07T08:22:35;17.10;99.90
78550;DHT22;68091;52.130;5.570;2023-05-07T08:25:02;17.20;99.90
78550;DHT22;68091;52.130;5.570;2023-05-07T08:27:27;17.30;99.90
78550;DHT22;68091;52.130;5.570;2023-05-07T08:29:54;17.30;99.90
78550;DHT22;68091;52.130;5.570;2023-05-07T08:32:21;17.20;99.90
78550;DHT22;68091;52.130;5.570;2023-05-07T08:34:50;17.30;99.90
78550;DHT22;68091;52.130;5.570;2023-05-07T08:37:16;17.20;99.90
78550;DHT22;68091;52.130;5.570;2023-05-07T08:39:42;17.20;99.90
78550;DHT22;68091;52.130;5.570;2023-05-07T08:42:09;17.20;99.90
78550;DHT22;68091;52.130;5.570;2023-05-07T08:44:35;17.10;99.90
78550;DHT22;68091;52.130;5.570;2023-05-07T08:47:06;16.90;99.90
78550;DHT22;68091;52.130;5.570;2023-05-07T08:49:33;16.70;99.90
78550;DHT22;68091;52.130;5.570;2023-05-07T08:51:59;16.50;99.90
78550;DHT22;68091;52.130;5.570;2023-05-07T08:54:26;16.50;99.90
78550;DHT22;68091;52.130;5.570;2023-05-07T08:56:53;16.50;99.90
78550;DHT22;68091;52.130;5.570;2023-05-07T08:59:18;16.50;99.90
78550;DHT22;68091;52.130;5.570;2023-05-07T09:01:44;16.40;99.90
78550;DHT22;68091;52.130;5.570;2023-05-07T09:04:10;16.40;99.90
78550;DHT22;68091;52.130;5.570;2023-05-07T09:06:38;16.50;99.90
78550;DHT22;68091;52.130;5.570;2023-05-07T09:09:07;16.60;99.90
78550;DHT22;68091;52.130;5.570;2023-05-07T09:11:33;16.60;99.90
78550;DHT22;68091;52.130;5.570;2023-05-07T09:13:59;16.70;99.90
78550;DHT22;68091;52.130;5.570;2023-05-07T09:16:28;16.70;99.90
78550;DHT22;68091;52.130;5.570;2023-05-07T09:18:54;16.80;99.90
78550;DHT22;68091;52.130;5.570;2023-05-07T09:21:21;16.80;99.90
78550;DHT22;68091;52.130;5.570;2023-05-07T09:23:51;17.00;99.90
78550;DHT22;68091;52.130;5.570;2023-05-07T09:26:19;17.30;99.90
78550;DHT22;68091;52.130;5.570;2023-05-07T09:28:46;17.10;99.90
78550;DHT22;68091;52.130;5.570;2023-05-07T09:31:12;17.00;99.90
78550;DHT22;68091;52.130;5.570;2023-05-07T09:33:41;17.00;99.90
78550;DHT22;68091;52.130;5.570;2023-05-07T09:36:08;16.90;99.90
78550;DHT22;68091;52.130;5.570;2023-05-07T09:38:35;17.00;99.90
78550;DHT22;68091;52.130;5.570;2023-05-07T09:41:12;17.20;99.90
78550;DHT22;68091;52.130;5.570;2023-05-07T09:43:39;17.10;99.90
78550;DHT22;68091;52.130;5.570;2023-05-07T09:46:12;17.30;99.90
78550;DHT22;68091;52.130;5.570;2023-05-07T09:48:40;17.40;99.90
78550;DHT22;68091;52.130;5.570;2023-05-07T09:53:48;17.80;99.90
78550;DHT22;68091;52.130;5.570;2023-05-07T09:56:16;17.80;99.90
78550;DHT22;68091;52.130;5.570;2023-05-07T09:58:43;17.80;99.90
78550;DHT22;68091;52.130;5.570;2023-05-07T10:01:12;17.90;99.90
78550;DHT22;68091;52.130;5.570;2023-05-07T10:03:40;18.10;99.90
78550;DHT22;68091;52.130;5.570;2023-05-07T10:06:09;18.30;99.90
78550;DHT22;68091;52.130;5.570;2023-05-07T10:08:36;18.60;99.90
78550;DHT22;68091;52.130;5.570;2023-05-07T10:11:04;18.40;99.90
78550;DHT22;68091;52.130;5.570;2023-05-07T10:13:30;18.40;99.90
78550;DHT22;68091;52.130;5.570;2023-05-07T10:15:57;18.40;99.90
78550;DHT22;68091;52.130;5.570;2023-05-07T10:18:23;18.10;99.90
78550;DHT22;68091;52.130;5.570;2023-05-07T10:21:18;18.20;99.90
78550;DHT22;68091;52.130;5.570;2023-05-07T10:23:53;18.20;99.90
78550;DHT22;68091;52.130;5.570;2023-05-07T10:26:22;18.20;99.90
78550;DHT22;68091;52.130;5.570;2023-05-07T10:28:55;18.10;99.90
78550;DHT22;68091;52.130;5.570;2023-05-07T10:34:11;18.20;99.90
78550;DHT22;68091;52.130;5.570;2023-05-07T10:36:39;18.30;99.90
78550;DHT22;68091;52.130;5.570;2023-05-07T10:39:06;18.40;99.90
78550;DHT22;68091;52.130;5.570;2023-05-07T10:41:32;18.70;99.90
78550;DHT22;68091;52.130;5.570;2023-05-07T10:43:58;19.00;99.90
78550;DHT22;68091;52.130;5.570;2023-05-07T10:46:27;19.00;99.90
78550;DHT22;68091;52.130;5.570;2023-05-07T10:51:37;19.20;99.90
78550;DHT22;68091;52.130;5.570;2023-05-07T10:56:41;19.80;99.90
78550;DHT22;68091;52.130;5.570;2023-05-07T11:01:58;20.10;99.90
78550;DHT22;68091;52.130;5.570;2023-05-07T11:04:25;20.40;99.90
78550;DHT22;68091;52.130;5.570;2023-05-07T11:09:56;20.70;99.90
78550;DHT22;68091;52.130;5.570;2023-05-07T11:15:14;20.70;99.90
78550;DHT22;68091;52.130;5.570;2023-05-07T11:18:04;20.40;99.90
78550;DHT22;68091;52.130;5.570;2023-05-07T11:20:53;20.50;99.90
78550;DHT22;68091;52.130;5.570;2023-05-07T11:26:06;20.50;99.90
78550;DHT22;68091;52.130;5.570;2023-05-07T11:28:42;20.60;99.90
78550;DHT22;68091;52.130;5.570;2023-05-07T11:31:09;20.80;99.90
78550;DHT22;68091;52.130;5.570;2023-05-07T11:33:35;20.80;99.90
78550;DHT22;68091;52.130;5.570;2023-05-07T11:36:05;20.90;99.90
78550;DHT22;68091;52.130;5.570;2023-05-07T11:38:36;20.80;99.90
78550;DHT22;68091;52.130;5.570;2023-05-07T11:41:05;20.70;99.90
78550;DHT22;68091;52.130;5.570;2023-05-07T11:43:37;20.90;99.90
78550;DHT22;68091;52.130;5.570;2023-05-07T11:46:10;21.20;99.90
78550;DHT22;68091;52.130;5.570;2023-05-07T11:48:40;21.10;99.90
78550;DHT22;68091;52.130;5.570;2023-05-07T11:51:07;21.20;99.90
78550;DHT22;68091;52.130;5.570;2023-05-07T11:53:42;21.10;99.90
78550;DHT22;68091;52.130;5.570;2023-05-07T11:56:09;20.90;99.90
78550;DHT22;68091;52.130;5.570;2023-05-07T11:58:35;20.70;99.90
78550;DHT22;68091;52.130;5.570;2023-05-07T12:01:01;20.70;99.90
78550;DHT22;68091;52.130;5.570;2023-05-07T12:03:28;20.90;99.90
78550;DHT22;68091;52.130;5.570;2023-05-07T12:05:54;20.80;99.90
78550;DHT22;68091;52.130;5.570;2023-05-07T12:08:21;20.70;99.90
78550;DHT22;68091;52.130;5.570;2023-05-07T12:10:49;20.70;99.90
78550;DHT22;68091;52.130;5.570;2023-05-07T12:13:28;20.90;99.90
78550;DHT22;68091;52.130;5.570;2023-05-07T12:15:55;21.30;99.90
78550;DHT22;68091;52.130;5.570;2023-05-07T12:18:24;21.40;99.90
78550;DHT22;68091;52.130;5.570;2023-05-07T12:20:50;21.60;99.90
78550;DHT22;68091;52.130;5.570;2023-05-07T12:23:17;21.90;99.90
78550;DHT22;68091;52.130;5.570;2023-05-07T12:25:43;22.10;99.90
78550;DHT22;68091;52.130;5.570;2023-05-07T12:28:14;22.20;99.90
78550;DHT22;68091;52.130;5.570;2023-05-07T12:30:50;21.90;99.90
78550;DHT22;68091;52.130;5.570;2023-05-07T12:33:18;21.80;99.90
78550;DHT22;68091;52.130;5.570;2023-05-07T12:35:47;21.80;99.90
78550;DHT22;68091;52.130;5.570;2023-05-07T12:38:15;21.80;99.90
78550;DHT22;68091;52.130;5.570;2023-05-07T12:40:46;21.70;99.90
78550;DHT22;68091;52.130;5.570;2023-05-07T12:43:28;21.40;99.90
78550;DHT22;68091;52.130;5.570;2023-05-07T12:45:55;21.30;99.90
78550;DHT22;68091;52.130;5.570;2023-05-07T12:48:25;21.30;99.90
78550;DHT22;68091;52.130;5.570;2023-05-07T12:51:00;21.50;99.90
78550;DHT22;68091;52.130;5.570;2023-05-07T12:53:27;21.50;99.90
78550;DHT22;68091;52.130;5.570;2023-05-07T12:55:58;21.70;99.90
78550;DHT22;68091;52.130;5.570;2023-05-07T12:58:29;21.70;99.90
78550;DHT22;68091;52.130;5.570;2023-05-07T13:01:00;22.00;99.90
78550;DHT22;68091;52.130;5.570;2023-05-07T13:03:34;22.10;99.90
78550;DHT22;68091;52.130;5.570;2023-05-07T13:06:06;22.30;99.90
78550;DHT22;68091;52.130;5.570;2023-05-07T13:08:37;22.20;99.90
78550;DHT22;68091;52.130;5.570;2023-05-07T13:11:07;22.00;99.90
78550;DHT22;68091;52.130;5.570;2023-05-07T13:13:35;22.00;99.90
78550;DHT22;68091;52.130;5.570;2023-05-07T13:16:08;21.90;99.90
78550;DHT22;68091;52.130;5.570;2023-05-07T13:18:37;21.90;99.90
78550;DHT22;68091;52.130;5.570;2023-05-07T13:21:11;21.90;99.90
78550;DHT22;68091;52.130;5.570;2023-05-07T13:23:41;22.10;99.90
78550;DHT22;68091;52.130;5.570;2023-05-07T13:26:19;22.10;99.90
78550;DHT22;68091;52.130;5.570;2023-05-07T13:28:46;22.30;99.90
78550;DHT22;68091;52.130;5.570;2023-05-07T13:31:11;22.20;99.90
78550;DHT22;68091;52.130;5.570;2023-05-07T13:33:37;22.20;99.90
78550;DHT22;68091;52.130;5.570;2023-05-07T13:36:03;22.20;99.90
78550;DHT22;68091;52.130;5.570;2023-05-07T13:38:31;21.90;99.90
78550;DHT22;68091;52.130;5.570;2023-05-07T13:40:57;21.70;99.90
78550;DHT22;68091;52.130;5.570;2023-05-07T13:43:24;21.30;99.90
78550;DHT22;68091;52.130;5.570;2023-05-07T13:45:50;21.30;99.90
78550;DHT22;68091;52.130;5.570;2023-05-07T13:48:15;21.10;99.90
78550;DHT22;68091;52.130;5.570;2023-05-07T13:50:41;21.00;99.90
78550;DHT22;68091;52.130;5.570;2023-05-07T13:53:08;21.10;99.90
78550;DHT22;68091;52.130;5.570;2023-05-07T13:55:33;21.10;99.90
78550;DHT22;68091;52.130;5.570;2023-05-07T13:58:00;21.00;99.90
78550;DHT22;68091;52.130;5.570;2023-05-07T14:00:28;20.70;99.90
78550;DHT22;68091;52.130;5.570;2023-05-07T14:02:54;20.70;99.90
78550;DHT22;68091;52.130;5.570;2023-05-07T14:05:21;20.70;99.90
78550;DHT22;68091;52.130;5.570;2023-05-07T14:07:52;20.60;99.90
78550;DHT22;68091;52.130;5.570;2023-05-07T14:10:18;20.70;99.90
78550;DHT22;68091;52.130;5.570;2023-05-07T14:12:45;20.70;99.90
78550;DHT22;68091;52.130;5.570;2023-05-07T14:15:20;20.80;99.90
78550;DHT22;68091;52.130;5.570;2023-05-07T14:17:46;21.00;99.90
78550;DHT22;68091;52.130;5.570;2023-05-07T14:20:12;21.10;99.90
78550;DHT22;68091;52.130;5.570;2023-05-07T14:22:38;20.90;99.90
78550;DHT22;68091;52.130;5.570;2023-05-07T14:25:08;21.00;99.90
78550;DHT22;68091;52.130;5.570;2023-05-07T14:27:53;20.90;99.90
78550;DHT22;68091;52.130;5.570;2023-05-07T14:30:19;20.90;99.90
78550;DHT22;68091;52.130;5.570;2023-05-07T14:32:51;21.00;99.90
78550;DHT22;68091;52.130;5.570;2023-05-07T14:35:38;20.80;99.90
78550;DHT22;68091;52.130;5.570;2023-05-07T14:38:03;20.80;99.90
78550;DHT22;68091;52.130;5.570;2023-05-07T14:40:29;20.80;99.90
78550;DHT22;68091;52.130;5.570;2023-05-07T14:43:04;20.50;99.90
78550;DHT22;68091;52.130;5.570;2023-05-07T14:45:30;20.50;99.90
78550;DHT22;68091;52.130;5.570;2023-05-07T14:48:36;20.40;99.90
78550;DHT22;68091;52.130;5.570;2023-05-07T14:51:27;20.10;99.90
78550;DHT22;68091;52.130;5.570;2023-05-07T14:53:54;19.90;99.90
78550;DHT22;68091;52.130;5.570;2023-05-07T14:56:20;20.00;99.90
78550;DHT22;68091;52.130;5.570;2023-05-07T14:59:06;20.00;99.90
78550;DHT22;68091;52.130;5.570;2023-05-07T15:01:38;19.80;99.90
78550;DHT22;68091;52.130;5.570;2023-05-07T15:04:09;19.70;99.90
78550;DHT22;68091;52.130;5.570;2023-05-07T15:06:35;19.70;99.90
78550;DHT22;68091;52.130;5.570;2023-05-07T15:09:01;19.70;99.90
78550;DHT22;68091;52.130;5.570;2023-05-07T15:11:27;19.60;99.90
78550;DHT22;68091;52.130;5.570;2023-05-07T15:13:52;19.50;99.90
78550;DHT22;68091;52.130;5.570;2023-05-07T15:16:30;19.50;99.90
78550;DHT22;68091;52.130;5.570;2023-05-07T15:19:01;19.40;99.90
78550;DHT22;68091;52.130;5.570;2023-05-07T15:21:33;19.10;99.90
78550;DHT22;68091;52.130;5.570;2023-05-07T15:24:03;19.10;99.90
78550;DHT22;68091;52.130;5.570;2023-05-07T15:26:29;19.20;99.90
78550;DHT22;68091;52.130;5.570;2023-05-07T15:28:55;19.10;99.90
78550;DHT22;68091;52.130;5.570;2023-05-07T15:31:23;19.10;99.90
78550;DHT22;68091;52.130;5.570;2023-05-07T15:33:55;19.10;99.90
78550;DHT22;68091;52.130;5.570;2023-05-07T15:36:21;19.10;99.90
78550;DHT22;68091;52.130;5.570;2023-05-07T15:38:47;18.80;99.90
78550;DHT22;68091;52.130;5.570;2023-05-07T15:41:52;18.70;99.90
78550;DHT22;68091;52.130;5.570;2023-05-07T15:44:17;18.80;99.90
78550;DHT22;68091;52.130;5.570;2023-05-07T15:46:43;18.80;99.90
78550;DHT22;68091;52.130;5.570;2023-05-07T15:49:09;18.80;99.90
78550;DHT22;68091;52.130;5.570;2023-05-07T15:51:37;18.70;99.90
78550;DHT22;68091;52.130;5.570;2023-05-07T15:54:04;18.60;99.90
78550;DHT22;68091;52.130;5.570;2023-05-07T15:56:34;18.50;99.90